createdAt,value
2017-09-07T00:01:50.705Z,9.33
2017-09-07T00:04:19.146Z,9.97
2017-09-07T00:06:47.510Z,7.60
2017-09-07T00:09:16.034Z,7.77
2017-09-07T00:11:44.426Z,7.03
2017-09-07T00:14:12.821Z,6.90
2017-09-07T00:16:41.150Z,7.23
2017-09-07T00:19:09.602Z,7.63
2017-09-07T00:21:37.942Z,7.80
2017-09-07T00:24:06.382Z,7.73
2017-09-07T00:26:34.774Z,6.17
2017-09-07T00:29:03.193Z,5.87
2017-09-07T00:31:31.550Z,6.67
2017-09-07T00:33:59.942Z,6.20
2017-09-07T00:36:28.330Z,6.37
2017-09-07T00:38:56.738Z,6.73
2017-09-07T00:41:25.071Z,6.57
2017-09-07T00:43:53.511Z,5.93
2017-09-07T00:46:21.878Z,6.30
2017-09-07T00:48:50.290Z,6.90
2017-09-07T00:51:18.658Z,7.30
2017-09-07T00:53:47.078Z,6.87
2017-09-07T00:56:15.478Z,6.33
2017-09-07T00:58:43.842Z,7.00
2017-09-07T01:01:12.182Z,7.70
2017-09-07T01:03:40.546Z,8.70
2017-09-07T01:06:08.935Z,7.40
2017-09-07T01:08:37.342Z,8.90
2017-09-07T01:11:05.713Z,7.47
2017-09-07T01:13:34.098Z,7.70
2017-09-07T01:16:02.810Z,8.13
2017-09-07T01:18:31.157Z,9.07
2017-09-07T01:20:59.489Z,8.73
2017-09-07T01:23:27.838Z,7.00
2017-09-07T01:25:56.271Z,9.33
2017-09-07T01:28:24.762Z,8.20
2017-09-07T01:30:53.108Z,7.93
2017-09-07T01:33:21.450Z,8.07
2017-09-07T01:35:49.859Z,8.30
2017-09-07T01:38:18.227Z,8.17
2017-09-07T01:40:46.614Z,8.97
2017-09-07T01:43:15.016Z,8.80
2017-09-07T01:45:43.359Z,9.10
2017-09-07T01:48:23.579Z,9.70
2017-09-07T01:50:51.942Z,10.03
2017-09-07T01:53:20.350Z,9.20
2017-09-07T01:55:48.754Z,11.83
2017-09-07T01:58:17.238Z,10.40
2017-09-07T02:00:45.593Z,10.50
2017-09-07T02:03:13.974Z,11.53
2017-09-07T02:05:42.318Z,14.07
2017-09-07T02:08:10.699Z,13.63
2017-09-07T02:10:39.052Z,14.57
2017-09-07T02:13:07.490Z,15.10
2017-09-07T02:15:35.873Z,14.30
2017-09-07T02:18:04.274Z,15.27
2017-09-07T02:20:32.666Z,16.23
2017-09-07T02:23:01.455Z,15.17
2017-09-07T02:25:29.863Z,13.83
2017-09-07T02:27:58.202Z,16.50
2017-09-07T02:30:26.651Z,15.57
2017-09-07T02:32:54.999Z,17.20
2017-09-07T02:35:23.414Z,16.23
2017-09-07T02:37:51.758Z,16.10
2017-09-07T02:40:20.152Z,17.80
2017-09-07T02:42:48.585Z,16.63
2017-09-07T02:45:16.978Z,17.43
2017-09-07T02:47:45.362Z,15.70
2017-09-07T02:50:13.768Z,15.70
2017-09-07T02:52:42.150Z,16.30
2017-09-07T02:55:10.528Z,15.00
2017-09-07T02:57:38.964Z,14.00
2017-09-07T03:00:07.316Z,13.73
2017-09-07T03:02:35.721Z,13.43
2017-09-07T03:05:04.116Z,12.43
2017-09-07T03:07:32.623Z,12.80
2017-09-07T03:10:00.966Z,11.73
2017-09-07T03:12:29.392Z,12.77
2017-09-07T03:14:57.738Z,12.20
2017-09-07T03:17:26.171Z,12.67
2017-09-07T03:19:54.578Z,12.13
2017-09-07T03:22:22.950Z,10.73
2017-09-07T03:24:51.322Z,11.17
2017-09-07T03:27:19.734Z,11.80
2017-09-07T03:29:48.110Z,10.80
2017-09-07T03:32:16.460Z,10.17
2017-09-07T03:34:44.843Z,10.10
2017-09-07T03:37:13.219Z,11.57
2017-09-07T03:39:41.876Z,11.60
2017-09-07T03:42:10.323Z,11.80
2017-09-07T03:44:38.786Z,11.77
2017-09-07T03:47:07.183Z,11.57
2017-09-07T03:49:35.563Z,10.40
2017-09-07T03:52:03.907Z,11.00
2017-09-07T03:54:32.287Z,12.13
2017-09-07T03:57:00.662Z,12.30
2017-09-07T03:59:29.040Z,12.80
2017-09-07T04:01:57.445Z,12.20
2017-09-07T04:04:25.807Z,11.80
2017-09-07T04:06:54.202Z,12.87
2017-09-07T04:09:22.542Z,13.43
2017-09-07T04:11:50.923Z,13.30
2017-09-07T04:14:19.366Z,11.93
2017-09-07T04:16:47.747Z,12.60
2017-09-07T04:19:16.154Z,13.10
2017-09-07T04:21:44.535Z,11.47
2017-09-07T04:24:12.942Z,12.17
2017-09-07T04:26:41.307Z,11.90
2017-09-07T04:29:09.642Z,10.80
2017-09-07T04:31:37.985Z,11.30
2017-09-07T04:34:06.359Z,10.67
2017-09-07T04:36:34.720Z,11.33
2017-09-07T04:39:03.111Z,11.90
2017-09-07T04:41:31.482Z,10.17
2017-09-07T04:43:59.845Z,11.13
2017-09-07T04:46:28.667Z,10.50
2017-09-07T04:48:57.039Z,10.03
2017-09-07T04:51:25.416Z,11.60
2017-09-07T04:53:53.838Z,12.00
2017-09-07T04:56:22.950Z,11.73
2017-09-07T04:58:51.341Z,12.23
2017-09-07T05:01:19.738Z,11.40
2017-09-07T05:03:48.126Z,12.17
2017-09-07T05:06:16.521Z,11.90
2017-09-07T05:08:44.907Z,12.30
2017-09-07T05:11:13.294Z,12.00
2017-09-07T05:13:41.693Z,11.67
2017-09-07T05:16:10.286Z,10.80
2017-09-07T05:18:38.631Z,11.23
2017-09-07T05:21:07.050Z,11.30
2017-09-07T05:23:35.509Z,11.37
2017-09-07T05:26:03.950Z,13.43
2017-09-07T05:28:32.356Z,12.70
2017-09-07T05:31:00.731Z,12.53
2017-09-07T05:33:29.115Z,11.60
2017-09-07T05:35:57.469Z,11.93
2017-09-07T05:38:25.812Z,12.10
2017-09-07T05:40:54.155Z,11.67
2017-09-07T05:43:22.503Z,10.40
2017-09-07T05:45:50.903Z,11.30
2017-09-07T05:48:19.251Z,11.47
2017-09-07T05:50:47.594Z,11.67
2017-09-07T05:53:16.055Z,11.57
2017-09-07T05:55:44.430Z,11.47
2017-09-07T05:58:12.820Z,11.87
2017-09-07T06:00:41.169Z,12.53
2017-09-07T06:03:09.545Z,13.23
2017-09-07T06:05:37.884Z,12.37
2017-09-07T06:08:06.230Z,13.30
2017-09-07T06:10:34.606Z,15.37
2017-09-07T06:13:03.286Z,16.67
2017-09-07T06:15:31.677Z,15.90
2017-09-07T06:18:00.062Z,15.47
2017-09-07T06:20:28.412Z,16.50
2017-09-07T06:22:56.846Z,17.20
2017-09-07T06:25:25.190Z,27.57
2017-09-07T06:27:53.554Z,18.17
2017-09-07T06:30:21.911Z,18.53
2017-09-07T06:32:50.301Z,16.57
2017-09-07T06:35:18.806Z,16.63
2017-09-07T06:37:47.193Z,15.17
2017-09-07T06:40:15.549Z,16.37
2017-09-07T06:42:44.008Z,16.77
2017-09-07T06:45:12.366Z,16.00
2017-09-07T06:47:40.710Z,19.30
2017-09-07T06:50:09.155Z,18.17
2017-09-07T06:52:37.554Z,17.80
2017-09-07T06:55:05.930Z,16.70
2017-09-07T06:57:34.274Z,16.80
2017-09-07T07:00:03.019Z,15.97
2017-09-07T07:02:31.394Z,17.60
2017-09-07T07:04:59.750Z,17.43
2017-09-07T07:07:28.123Z,18.80
2017-09-07T07:09:56.474Z,19.03
2017-09-07T07:12:25.286Z,18.50
2017-09-07T07:14:53.678Z,17.93
2017-09-07T07:17:22.202Z,17.53
2017-09-07T07:19:50.746Z,18.40
2017-09-07T07:22:19.153Z,17.17
2017-09-07T07:24:47.538Z,17.50
2017-09-07T07:27:15.897Z,15.50
2017-09-07T07:29:44.343Z,16.13
2017-09-07T07:32:12.704Z,16.43
2017-09-07T07:34:41.075Z,13.70
2017-09-07T07:37:09.510Z,15.20
2017-09-07T07:39:37.863Z,15.60
2017-09-07T07:42:06.263Z,16.87
2017-09-07T07:44:34.607Z,15.33
2017-09-07T07:47:03.278Z,16.63
2017-09-07T07:49:31.666Z,17.13
2017-09-07T07:52:00.014Z,15.00
2017-09-07T07:54:28.403Z,15.33
2017-09-07T07:56:56.785Z,14.80
2017-09-07T07:59:25.177Z,14.83
2017-09-07T08:01:53.525Z,16.13
2017-09-07T08:04:21.914Z,15.27
2017-09-07T08:06:50.306Z,13.57
2017-09-07T08:09:18.711Z,12.20
2017-09-07T08:11:47.323Z,11.50
2017-09-07T08:14:15.786Z,11.87
2017-09-07T08:16:44.194Z,12.37
2017-09-07T08:19:12.539Z,10.17
2017-09-07T08:21:40.954Z,10.40
2017-09-07T08:24:09.358Z,9.93
2017-09-07T08:26:37.842Z,10.23
2017-09-07T08:29:06.203Z,10.90
2017-09-07T08:31:34.631Z,11.67
2017-09-07T08:34:03.002Z,11.17
2017-09-07T08:36:31.418Z,10.37
2017-09-07T08:38:59.779Z,9.57
2017-09-07T08:41:28.120Z,8.80
2017-09-07T08:43:56.486Z,8.87
2017-09-07T08:46:24.984Z,7.17
2017-09-07T08:48:53.323Z,6.97
2017-09-07T08:51:21.800Z,7.43
2017-09-07T08:53:50.130Z,7.73
2017-09-07T08:56:18.573Z,7.40
2017-09-07T08:58:46.939Z,6.10
2017-09-07T09:01:15.322Z,7.53
2017-09-07T09:03:43.670Z,7.20
2017-09-07T09:06:12.011Z,7.33
2017-09-07T09:08:40.395Z,7.63
2017-09-07T09:11:40.843Z,7.20
2017-09-07T09:14:09.211Z,7.17
2017-09-07T09:16:37.550Z,7.20
2017-09-07T09:19:05.915Z,7.10
2017-09-07T09:21:34.311Z,7.13
2017-09-07T09:24:02.650Z,7.93
2017-09-07T09:26:31.186Z,7.77
2017-09-07T09:28:59.526Z,7.13
2017-09-07T09:31:27.910Z,8.97
2017-09-07T09:33:56.362Z,9.10
2017-09-07T09:36:24.758Z,8.40
2017-09-07T09:38:53.142Z,8.33
2017-09-07T09:41:21.478Z,7.60
2017-09-07T09:43:49.830Z,8.17
2017-09-07T09:46:18.671Z,7.73
2017-09-07T09:48:47.018Z,8.30
2017-09-07T09:51:15.358Z,7.10
2017-09-07T09:53:43.727Z,8.90
2017-09-07T09:56:12.115Z,8.70
2017-09-07T09:58:40.458Z,7.40
2017-09-07T10:01:08.874Z,7.07
2017-09-07T10:03:37.243Z,7.70
2017-09-07T10:06:05.707Z,7.53
2017-09-07T10:08:34.154Z,7.60
2017-09-07T10:11:02.521Z,6.80
2017-09-07T10:13:30.938Z,7.60
2017-09-07T10:15:59.291Z,7.90
2017-09-07T10:18:27.671Z,7.53
2017-09-07T10:20:56.015Z,6.43
2017-09-07T10:23:24.380Z,7.30
2017-09-07T10:25:52.755Z,7.47
2017-09-07T10:28:21.129Z,5.90
2017-09-07T10:30:49.474Z,6.80
2017-09-07T10:33:17.841Z,6.53
2017-09-07T10:35:46.183Z,6.80
2017-09-07T10:38:14.654Z,6.43
2017-09-07T10:40:42.993Z,6.27
2017-09-07T10:43:11.388Z,5.83
2017-09-07T10:45:39.761Z,6.20
2017-09-07T10:48:08.086Z,5.73
2017-09-07T10:50:36.426Z,5.80
2017-09-07T10:53:04.770Z,4.77
2017-09-07T10:55:33.170Z,5.90
2017-09-07T10:58:01.519Z,7.00
2017-09-07T11:00:29.921Z,6.40
2017-09-07T11:02:58.352Z,5.40
2017-09-07T11:05:27.155Z,5.40
2017-09-07T11:07:55.497Z,6.10
2017-09-07T11:10:23.934Z,5.53
2017-09-07T11:12:52.644Z,5.90
2017-09-07T11:15:21.027Z,6.13
2017-09-07T11:17:49.419Z,6.90
2017-09-07T11:20:17.756Z,6.37
2017-09-07T11:22:46.118Z,6.03
2017-09-07T11:25:14.462Z,5.80
2017-09-07T11:27:43.395Z,5.97
2017-09-07T11:30:11.787Z,6.43
2017-09-07T11:32:40.171Z,6.37
2017-09-07T11:35:08.567Z,6.90
2017-09-07T11:37:36.951Z,6.80
2017-09-07T11:40:05.334Z,6.00
2017-09-07T11:42:34.755Z,6.43
2017-09-07T11:45:03.120Z,6.20
2017-09-07T11:47:31.642Z,6.40
2017-09-07T11:49:59.978Z,6.10
2017-09-07T11:52:28.458Z,6.33
2017-09-07T11:54:56.816Z,6.47
2017-09-07T11:57:25.149Z,6.23
2017-09-07T11:59:53.522Z,6.70
2017-09-07T12:02:21.870Z,6.63
2017-09-07T12:04:50.201Z,5.97
2017-09-07T12:07:18.548Z,6.43
2017-09-07T12:09:46.888Z,6.63
2017-09-07T12:12:15.251Z,6.20
2017-09-07T12:14:43.626Z,8.40
2017-09-07T12:17:11.964Z,6.60
2017-09-07T12:19:40.315Z,6.93
2017-09-07T12:22:08.701Z,7.20
2017-09-07T12:24:37.054Z,7.10
2017-09-07T12:27:05.395Z,7.50
2017-09-07T12:29:33.766Z,7.67
2017-09-07T12:32:02.431Z,8.23
2017-09-07T12:34:30.795Z,8.37
2017-09-07T12:36:59.170Z,8.30
2017-09-07T12:39:27.506Z,8.13
2017-09-07T12:41:55.854Z,8.80
2017-09-07T12:44:24.190Z,7.90
2017-09-07T12:46:52.630Z,8.90
2017-09-07T12:49:21.023Z,7.07
2017-09-07T12:51:49.390Z,7.87
2017-09-07T12:54:17.734Z,9.27
2017-09-07T12:56:46.121Z,8.40
2017-09-07T12:59:14.543Z,8.97
2017-09-07T13:01:43.006Z,8.50
2017-09-07T13:04:11.381Z,7.57
2017-09-07T13:06:39.713Z,9.10
2017-09-07T13:09:08.194Z,8.90
2017-09-07T13:11:36.535Z,8.30
2017-09-07T13:14:04.883Z,8.50
2017-09-07T13:16:33.226Z,8.50
2017-09-07T13:19:01.594Z,8.93
2017-09-07T13:21:30.006Z,8.70
2017-09-07T13:23:58.397Z,9.00
2017-09-07T13:26:26.806Z,10.40
2017-09-07T13:28:55.190Z,8.93
2017-09-07T13:31:23.550Z,9.30
2017-09-07T13:33:51.930Z,8.53
2017-09-07T13:36:20.291Z,9.73
2017-09-07T13:38:48.630Z,8.77
2017-09-07T13:41:17.031Z,8.03
2017-09-07T13:43:45.366Z,7.87
2017-09-07T13:46:13.783Z,9.10
2017-09-07T13:48:42.154Z,8.07
2017-09-07T13:51:10.518Z,7.37
2017-09-07T13:53:38.858Z,7.83
2017-09-07T13:56:07.239Z,8.30
2017-09-07T13:58:35.582Z,8.70
2017-09-07T14:01:03.923Z,7.20
2017-09-07T14:03:32.262Z,7.27
2017-09-07T14:06:05.830Z,7.70
2017-09-07T14:08:34.254Z,7.87
2017-09-07T14:11:02.750Z,6.07
2017-09-07T14:13:31.119Z,6.90
2017-09-07T14:15:59.458Z,7.07
2017-09-07T14:18:27.798Z,7.50
2017-09-07T14:20:56.337Z,7.20
2017-09-07T14:23:24.670Z,7.47
2017-09-07T14:25:53.014Z,6.90
2017-09-07T14:28:21.387Z,7.77
2017-09-07T14:30:49.758Z,6.50
2017-09-07T14:33:18.518Z,6.60
2017-09-07T14:35:46.972Z,7.53
2017-09-07T14:38:15.319Z,6.90
2017-09-07T14:40:43.658Z,7.47
2017-09-07T14:43:12.046Z,6.60
2017-09-07T14:45:40.382Z,7.13
2017-09-07T14:48:08.781Z,7.10
2017-09-07T14:50:37.214Z,5.67
2017-09-07T14:53:05.695Z,6.83
2017-09-07T14:55:34.033Z,7.90
2017-09-07T14:58:02.365Z,5.70
2017-09-07T15:00:30.710Z,7.37
2017-09-07T15:02:59.047Z,6.07
2017-09-07T15:05:27.457Z,6.13
2017-09-07T15:07:55.794Z,5.50
2017-09-07T15:10:24.137Z,5.20
2017-09-07T15:12:52.474Z,7.23
2017-09-07T15:15:20.917Z,7.17
2017-09-07T15:17:49.409Z,6.00
2017-09-07T15:20:17.750Z,5.90
2017-09-07T15:22:46.090Z,5.80
2017-09-07T15:25:14.434Z,6.60
2017-09-07T15:27:42.770Z,6.50
2017-09-07T15:30:11.142Z,6.23
2017-09-07T15:32:39.530Z,6.30
2017-09-07T15:35:07.867Z,6.30
2017-09-07T15:37:36.342Z,6.03
2017-09-07T15:40:04.714Z,6.40
2017-09-07T15:42:33.049Z,5.90
2017-09-07T15:45:01.511Z,6.87
2017-09-07T15:47:30.115Z,6.00
2017-09-07T15:49:58.449Z,5.97
2017-09-07T15:52:26.782Z,6.80
2017-09-07T15:54:55.126Z,6.93
2017-09-07T15:57:23.487Z,5.40
2017-09-07T15:59:57.086Z,6.20
2017-09-07T16:02:25.457Z,6.00
2017-09-07T16:04:53.842Z,5.97
2017-09-07T16:07:22.259Z,6.57
2017-09-07T16:09:50.618Z,6.13
2017-09-07T16:12:18.983Z,6.80
2017-09-07T16:14:47.337Z,7.10
2017-09-07T16:17:15.720Z,6.70
2017-09-07T16:19:44.090Z,6.40
2017-09-07T16:22:12.511Z,6.23
2017-09-07T16:24:40.874Z,6.50
2017-09-07T16:27:09.287Z,7.27
2017-09-07T16:29:37.658Z,6.33
2017-09-07T16:32:06.122Z,6.73
2017-09-07T16:34:34.471Z,6.13
2017-09-07T16:37:02.827Z,6.43
2017-09-07T16:39:31.167Z,5.80
2017-09-07T16:41:59.634Z,8.07
2017-09-07T16:44:27.974Z,5.57
2017-09-07T16:46:56.354Z,6.80
2017-09-07T16:49:24.723Z,5.17
2017-09-07T16:51:53.057Z,5.90
2017-09-07T16:54:21.499Z,6.73
2017-09-07T16:56:49.837Z,6.10
2017-09-07T16:59:18.182Z,6.97
2017-09-07T17:01:46.526Z,6.47
2017-09-07T17:04:14.879Z,6.00
2017-09-07T17:06:43.242Z,6.93
2017-09-07T17:09:11.634Z,5.47
2017-09-07T17:11:39.979Z,5.13
2017-09-07T17:14:08.349Z,6.10
2017-09-07T17:16:36.728Z,5.07
2017-09-07T17:19:05.092Z,5.03
2017-09-07T17:21:33.429Z,6.33
2017-09-07T17:24:01.880Z,6.87
2017-09-07T17:26:30.222Z,5.77
2017-09-07T17:28:58.590Z,7.07
2017-09-07T17:31:26.967Z,6.87
2017-09-07T17:33:55.312Z,7.87
2017-09-07T17:36:23.650Z,6.23
2017-09-07T17:38:52.053Z,5.07
2017-09-07T17:41:20.384Z,6.57
2017-09-07T17:43:48.745Z,5.90
2017-09-07T17:46:17.090Z,6.63
2017-09-07T17:48:45.471Z,6.40
2017-09-07T17:51:13.815Z,6.10
2017-09-07T17:53:42.146Z,6.30
2017-09-07T17:56:10.486Z,5.80
2017-09-07T17:58:38.862Z,5.87
2017-09-07T18:01:07.257Z,5.70
2017-09-07T18:03:35.630Z,6.50
2017-09-07T18:06:03.974Z,6.90
2017-09-07T18:08:32.322Z,5.20
2017-09-07T18:11:00.658Z,6.80
2017-09-07T18:13:29.027Z,6.47
2017-09-07T18:15:57.368Z,7.13
2017-09-07T18:18:25.800Z,7.60
2017-09-07T18:20:54.176Z,6.10
2017-09-07T18:23:22.529Z,7.13
2017-09-07T18:25:50.946Z,6.43
2017-09-07T18:28:19.718Z,7.80
2017-09-07T18:30:48.142Z,8.20
2017-09-07T18:33:16.650Z,6.43
2017-09-07T18:35:45.239Z,7.70
2017-09-07T18:38:13.621Z,7.20
2017-09-07T18:40:41.960Z,7.53
2017-09-07T18:43:10.406Z,7.30
2017-09-07T18:45:38.783Z,7.30
2017-09-07T18:48:07.123Z,7.03
2017-09-07T18:50:35.457Z,7.30
2017-09-07T18:53:03.817Z,7.57
2017-09-07T18:55:32.182Z,7.50
2017-09-07T18:58:00.526Z,6.80
2017-09-07T19:00:28.934Z,7.20
2017-09-07T19:02:57.275Z,8.17
2017-09-07T19:05:25.669Z,6.50
2017-09-07T19:07:54.058Z,9.40
2017-09-07T19:10:22.449Z,7.20
2017-09-07T19:12:50.899Z,8.30
2017-09-07T19:15:19.238Z,7.83
2017-09-07T19:17:47.670Z,7.07
2017-09-07T19:20:16.010Z,7.50
2017-09-07T19:22:44.454Z,8.90
2017-09-07T19:25:12.858Z,8.10
2017-09-07T19:27:41.202Z,7.27
2017-09-07T19:30:09.570Z,8.77
2017-09-07T19:32:37.930Z,7.30
2017-09-07T19:35:06.304Z,7.20
2017-09-07T19:37:34.711Z,8.17
2017-09-07T19:40:03.095Z,7.10
2017-09-07T19:42:31.492Z,8.77
2017-09-07T19:44:59.874Z,7.47
2017-09-07T19:47:28.216Z,8.10
2017-09-07T19:49:56.595Z,8.27
2017-09-07T19:52:24.980Z,7.50
2017-09-07T19:54:53.333Z,8.37
2017-09-07T19:57:21.695Z,8.80
2017-09-07T19:59:50.067Z,7.30
2017-09-07T20:02:18.453Z,7.90
2017-09-07T20:04:46.810Z,7.90
2017-09-07T20:07:15.267Z,8.30
2017-09-07T20:09:43.610Z,8.47
2017-09-07T20:12:12.073Z,7.83
2017-09-07T20:14:40.430Z,7.60
2017-09-07T20:17:08.869Z,7.90
2017-09-07T20:19:37.201Z,6.87
2017-09-07T20:22:05.642Z,8.10
2017-09-07T20:24:33.983Z,8.60
2017-09-07T20:27:02.322Z,7.13
2017-09-07T20:29:30.663Z,8.80
2017-09-07T20:31:59.041Z,8.07
2017-09-07T20:34:27.532Z,8.53
2017-09-07T20:36:56.108Z,8.00
2017-09-07T20:39:24.467Z,9.10
2017-09-07T20:41:52.807Z,9.03
2017-09-07T20:44:21.166Z,8.67
2017-09-07T20:46:49.538Z,9.40
2017-09-07T20:49:17.879Z,10.60
2017-09-07T20:51:46.242Z,10.10
2017-09-07T20:54:14.638Z,10.17
2017-09-07T20:56:43.030Z,10.30
2017-09-07T20:59:11.410Z,11.00
2017-09-07T21:01:39.750Z,9.53
2017-09-07T21:04:08.188Z,9.57
2017-09-07T21:06:38.663Z,9.87
2017-09-07T21:09:07.222Z,9.10
2017-09-07T21:11:35.579Z,8.63
2017-09-07T21:14:03.943Z,8.90
2017-09-07T21:16:32.310Z,10.00
2017-09-07T21:19:00.794Z,8.90
2017-09-07T21:21:29.207Z,9.63
2017-09-07T21:23:57.576Z,9.97
2017-09-07T21:26:25.987Z,8.97
2017-09-07T21:28:54.343Z,8.70
2017-09-07T21:31:22.706Z,8.20
2017-09-07T21:33:51.047Z,8.87
2017-09-07T21:36:19.394Z,9.13
2017-09-07T21:38:47.726Z,9.17
2017-09-07T21:41:16.078Z,10.80
2017-09-07T21:43:44.547Z,9.27
2017-09-07T21:46:12.878Z,8.67
2017-09-07T21:48:41.222Z,9.27
2017-09-07T21:51:09.578Z,9.33
2017-09-07T21:53:37.978Z,9.47
2017-09-07T21:56:06.479Z,8.93
2017-09-07T21:58:34.859Z,9.70
2017-09-07T22:01:03.214Z,9.07
2017-09-07T22:03:31.555Z,9.03
2017-09-07T22:05:59.918Z,8.93
2017-09-07T22:08:29.242Z,10.10
2017-09-07T22:10:57.735Z,8.30
2017-09-07T22:13:26.128Z,8.90
2017-09-07T22:15:54.526Z,8.60
2017-09-07T22:18:22.894Z,9.87
2017-09-07T22:20:54.571Z,8.17
2017-09-07T22:23:22.946Z,8.47
2017-09-07T22:25:51.303Z,9.27
2017-09-07T22:28:19.634Z,7.53
2017-09-07T22:30:48.150Z,9.50
2017-09-07T22:33:17.618Z,9.33
2017-09-07T22:35:46.841Z,8.73
2017-09-07T22:38:15.738Z,9.43
2017-09-07T22:40:44.328Z,9.70
2017-09-07T22:43:12.823Z,9.10
2017-09-07T22:45:41.783Z,9.23
2017-09-07T22:48:10.389Z,9.53
2017-09-07T22:50:39.723Z,8.30
2017-09-07T22:53:08.772Z,8.20
2017-09-07T22:55:37.617Z,8.87
2017-09-07T22:58:06.839Z,9.43
2017-09-07T23:00:35.675Z,8.83
2017-09-07T23:03:05.262Z,8.53
2017-09-07T23:05:33.806Z,8.00
2017-09-07T23:08:02.506Z,8.03
2017-09-07T23:10:30.851Z,7.80
2017-09-07T23:12:59.324Z,9.37
2017-09-07T23:15:27.658Z,7.93
2017-09-07T23:17:56.034Z,8.03
2017-09-07T23:20:24.462Z,6.80
2017-09-07T23:22:52.806Z,8.30
2017-09-07T23:25:21.145Z,7.60
2017-09-07T23:27:49.517Z,8.17
2017-09-07T23:30:17.852Z,7.33
2017-09-07T23:32:46.330Z,9.43
2017-09-07T23:35:14.744Z,7.30
2017-09-07T23:37:43.082Z,8.20
2017-09-07T23:40:11.454Z,8.13
2017-09-07T23:42:39.790Z,7.90
2017-09-07T23:45:08.159Z,7.80
2017-09-07T23:47:36.567Z,7.50
2017-09-07T23:50:04.962Z,7.17
2017-09-07T23:52:33.323Z,7.43
2017-09-07T23:55:01.668Z,9.50
2017-09-07T23:57:30.038Z,8.43
2017-09-07T23:59:58.431Z,8.27
